sensor_id;sensor_type;location;lat;lon;timestamp;P1;durP1;ratioP1;P2;durP2;ratioP2
11447;SDS011;43755;49.736;8.734;2023-09-08T00:01:52;4.80;;;4.40;;
11447;SDS011;43755;49.736;8.734;2023-09-08T00:03:54;5.25;;;4.72;;
11447;SDS011;43755;49.736;8.734;2023-09-08T00:05:55;5.05;;;4.63;;
11447;SDS011;43755;49.736;8.734;2023-09-08T00:07:57;5.22;;;4.72;;
11447;SDS011;43755;49.736;8.734;2023-09-08T00:10:00;5.03;;;4.53;;
11447;SDS011;43755;49.736;8.734;2023-09-08T00:12:00;5.00;;;4.53;;
11447;SDS011;43755;49.736;8.734;2023-09-08T00:14:02;4.70;;;4.38;;
11447;SDS011;43755;49.736;8.734;2023-09-08T00:16:04;5.07;;;4.68;;
11447;SDS011;43755;49.736;8.734;2023-09-08T00:18:05;5.35;;;4.85;;
11447;SDS011;43755;49.736;8.734;2023-09-08T00:20:07;5.85;;;4.40;;
11447;SDS011;43755;49.736;8.734;2023-09-08T00:22:09;5.65;;;4.40;;
11447;SDS011;43755;49.736;8.734;2023-09-08T00:24:11;4.60;;;4.20;;
11447;SDS011;43755;49.736;8.734;2023-09-08T00:26:13;5.53;;;4.53;;
11447;SDS011;43755;49.736;8.734;2023-09-08T00:28:15;4.90;;;4.40;;
11447;SDS011;43755;49.736;8.734;2023-09-08T00:30:16;5.00;;;4.10;;
11447;SDS011;43755;49.736;8.734;2023-09-08T00:32:17;4.80;;;4.30;;
11447;SDS011;43755;49.736;8.734;2023-09-08T00:34:18;5.05;;;4.57;;
11447;SDS011;43755;49.736;8.734;2023-09-08T00:36:19;5.10;;;4.20;;
11447;SDS011;43755;49.736;8.734;2023-09-08T00:38:20;5.83;;;3.93;;
11447;SDS011;43755;49.736;8.734;2023-09-08T00:40:21;5.07;;;4.60;;
11447;SDS011;43755;49.736;8.734;2023-09-08T00:42:24;5.10;;;4.47;;
11447;SDS011;43755;49.736;8.734;2023-09-08T00:44:25;4.78;;;4.38;;
11447;SDS011;43755;49.736;8.734;2023-09-08T00:46:27;4.43;;;4.13;;
11447;SDS011;43755;49.736;8.734;2023-09-08T00:48:30;5.13;;;4.00;;
11447;SDS011;43755;49.736;8.734;2023-09-08T00:50:32;8.63;;;6.60;;
11447;SDS011;43755;49.736;8.734;2023-09-08T00:52:32;5.77;;;5.17;;
11447;SDS011;43755;49.736;8.734;2023-09-08T00:54:34;4.80;;;4.32;;
11447;SDS011;43755;49.736;8.734;2023-09-08T00:56:36;5.07;;;4.68;;
11447;SDS011;43755;49.736;8.734;2023-09-08T00:58:39;4.85;;;4.32;;
11447;SDS011;43755;49.736;8.734;2023-09-08T01:00:41;5.60;;;4.10;;
11447;SDS011;43755;49.736;8.734;2023-09-08T01:02:42;4.50;;;4.20;;
11447;SDS011;43755;49.736;8.734;2023-09-08T01:04:46;4.40;;;4.10;;
11447;SDS011;43755;49.736;8.734;2023-09-08T01:06:47;5.00;;;4.50;;
11447;SDS011;43755;49.736;8.734;2023-09-08T01:08:50;5.15;;;4.65;;
11447;SDS011;43755;49.736;8.734;2023-09-08T01:10:51;7.25;;;4.68;;
11447;SDS011;43755;49.736;8.734;2023-09-08T01:12:53;5.30;;;4.80;;
11447;SDS011;43755;49.736;8.734;2023-09-08T01:14:56;4.80;;;4.38;;
11447;SDS011;43755;49.736;8.734;2023-09-08T01:16:57;5.45;;;4.95;;
11447;SDS011;43755;49.736;8.734;2023-09-08T01:18:59;4.93;;;4.30;;
11447;SDS011;43755;49.736;8.734;2023-09-08T01:21:05;6.03;;;4.60;;
11447;SDS011;43755;49.736;8.734;2023-09-08T01:23:22;4.60;;;4.03;;
11447;SDS011;43755;49.736;8.734;2023-09-08T01:25:30;5.45;;;4.57;;
11447;SDS011;43755;49.736;8.734;2023-09-08T01:27:33;4.82;;;4.43;;
11447;SDS011;43755;49.736;8.734;2023-09-08T01:29:36;4.60;;;4.25;;
11447;SDS011;43755;49.736;8.734;2023-09-08T01:31:39;4.78;;;4.40;;
11447;SDS011;43755;49.736;8.734;2023-09-08T01:33:40;6.18;;;4.68;;
11447;SDS011;43755;49.736;8.734;2023-09-08T01:35:43;5.15;;;4.70;;
11447;SDS011;43755;49.736;8.734;2023-09-08T01:37:45;5.00;;;4.40;;
11447;SDS011;43755;49.736;8.734;2023-09-08T01:39:47;6.50;;;4.60;;
11447;SDS011;43755;49.736;8.734;2023-09-08T01:41:49;6.10;;;4.40;;
11447;SDS011;43755;49.736;8.734;2023-09-08T01:43:51;5.28;;;4.75;;
11447;SDS011;43755;49.736;8.734;2023-09-08T01:45:52;8.45;;;4.45;;
11447;SDS011;43755;49.736;8.734;2023-09-08T01:47:54;4.95;;;4.45;;
11447;SDS011;43755;49.736;8.734;2023-09-08T01:49:55;4.88;;;4.43;;
11447;SDS011;43755;49.736;8.734;2023-09-08T01:51:56;4.67;;;4.20;;
11447;SDS011;43755;49.736;8.734;2023-09-08T01:53:57;4.55;;;4.18;;
11447;SDS011;43755;49.736;8.734;2023-09-08T01:55:59;7.30;;;4.68;;
11447;SDS011;43755;49.736;8.734;2023-09-08T01:58:02;5.63;;;4.13;;
11447;SDS011;43755;49.736;8.734;2023-09-08T02:00:04;5.55;;;4.68;;
11447;SDS011;43755;49.736;8.734;2023-09-08T02:02:06;4.57;;;4.20;;
11447;SDS011;43755;49.736;8.734;2023-09-08T02:04:08;4.55;;;4.20;;
11447;SDS011;43755;49.736;8.734;2023-09-08T02:06:09;4.95;;;4.55;;
11447;SDS011;43755;49.736;8.734;2023-09-08T02:08:10;5.10;;;4.70;;
11447;SDS011;43755;49.736;8.734;2023-09-08T02:10:12;6.38;;;4.70;;
11447;SDS011;43755;49.736;8.734;2023-09-08T02:12:13;4.70;;;4.30;;
11447;SDS011;43755;49.736;8.734;2023-09-08T02:14:16;5.05;;;4.60;;
11447;SDS011;43755;49.736;8.734;2023-09-08T02:16:18;4.65;;;4.25;;
11447;SDS011;43755;49.736;8.734;2023-09-08T02:18:19;7.43;;;4.50;;
11447;SDS011;43755;49.736;8.734;2023-09-08T02:20:20;5.38;;;4.88;;
11447;SDS011;43755;49.736;8.734;2023-09-08T02:22:22;5.65;;;4.65;;
11447;SDS011;43755;49.736;8.734;2023-09-08T02:24:23;5.15;;;4.65;;
11447;SDS011;43755;49.736;8.734;2023-09-08T02:26:25;4.93;;;4.53;;
11447;SDS011;43755;49.736;8.734;2023-09-08T02:28:27;4.88;;;4.43;;
11447;SDS011;43755;49.736;8.734;2023-09-08T02:30:30;4.40;;;4.07;;
11447;SDS011;43755;49.736;8.734;2023-09-08T02:32:31;6.65;;;4.60;;
11447;SDS011;43755;49.736;8.734;2023-09-08T02:34:33;5.30;;;4.82;;
11447;SDS011;43755;49.736;8.734;2023-09-08T02:36:36;5.68;;;4.65;;
11447;SDS011;43755;49.736;8.734;2023-09-08T02:38:38;5.30;;;4.75;;
11447;SDS011;43755;49.736;8.734;2023-09-08T02:40:39;5.45;;;4.95;;
11447;SDS011;43755;49.736;8.734;2023-09-08T02:42:40;5.25;;;4.80;;
11447;SDS011;43755;49.736;8.734;2023-09-08T02:44:42;4.95;;;4.55;;
11447;SDS011;43755;49.736;8.734;2023-09-08T02:46:46;5.30;;;4.85;;
11447;SDS011;43755;49.736;8.734;2023-09-08T02:48:47;5.65;;;5.10;;
11447;SDS011;43755;49.736;8.734;2023-09-08T02:50:48;5.22;;;4.80;;
11447;SDS011;43755;49.736;8.734;2023-09-08T02:52:50;5.38;;;4.88;;
11447;SDS011;43755;49.736;8.734;2023-09-08T02:54:51;5.40;;;4.90;;
11447;SDS011;43755;49.736;8.734;2023-09-08T02:56:52;4.93;;;4.50;;
11447;SDS011;43755;49.736;8.734;2023-09-08T02:58:53;6.03;;;5.53;;
11447;SDS011;43755;49.736;8.734;2023-09-08T03:00:54;5.47;;;5.00;;
11447;SDS011;43755;49.736;8.734;2023-09-08T03:02:56;5.93;;;5.33;;
11447;SDS011;43755;49.736;8.734;2023-09-08T03:04:58;6.20;;;5.30;;
11447;SDS011;43755;49.736;8.734;2023-09-08T03:07:00;5.93;;;5.07;;
11447;SDS011;43755;49.736;8.734;2023-09-08T03:09:01;6.07;;;5.13;;
11447;SDS011;43755;49.736;8.734;2023-09-08T03:11:03;5.97;;;5.47;;
11447;SDS011;43755;49.736;8.734;2023-09-08T03:13:05;5.57;;;5.07;;
11447;SDS011;43755;49.736;8.734;2023-09-08T03:15:07;6.70;;;5.28;;
11447;SDS011;43755;49.736;8.734;2023-09-08T03:17:09;7.22;;;4.93;;
11447;SDS011;43755;49.736;8.734;2023-09-08T03:19:12;6.22;;;5.40;;
11447;SDS011;43755;49.736;8.734;2023-09-08T03:21:13;5.90;;;5.40;;
11447;SDS011;43755;49.736;8.734;2023-09-08T03:23:15;5.93;;;5.43;;
11447;SDS011;43755;49.736;8.734;2023-09-08T03:25:17;6.60;;;6.00;;
11447;SDS011;43755;49.736;8.734;2023-09-08T03:27:18;5.93;;;5.28;;
11447;SDS011;43755;49.736;8.734;2023-09-08T03:29:19;5.80;;;5.32;;
11447;SDS011;43755;49.736;8.734;2023-09-08T03:31:21;8.02;;;5.47;;
11447;SDS011;43755;49.736;8.734;2023-09-08T03:33:22;6.03;;;5.30;;
11447;SDS011;43755;49.736;8.734;2023-09-08T03:35:25;6.28;;;5.65;;
11447;SDS011;43755;49.736;8.734;2023-09-08T03:37:26;5.95;;;5.40;;
11447;SDS011;43755;49.736;8.734;2023-09-08T03:39:28;6.03;;;5.53;;
11447;SDS011;43755;49.736;8.734;2023-09-08T03:41:29;5.88;;;5.38;;
11447;SDS011;43755;49.736;8.734;2023-09-08T03:43:31;5.28;;;4.82;;
11447;SDS011;43755;49.736;8.734;2023-09-08T03:45:32;5.82;;;5.10;;
11447;SDS011;43755;49.736;8.734;2023-09-08T03:47:33;5.55;;;5.05;;
11447;SDS011;43755;49.736;8.734;2023-09-08T03:49:35;6.22;;;5.45;;
11447;SDS011;43755;49.736;8.734;2023-09-08T03:51:38;5.45;;;4.90;;
11447;SDS011;43755;49.736;8.734;2023-09-08T03:53:39;5.78;;;5.25;;
11447;SDS011;43755;49.736;8.734;2023-09-08T03:55:40;5.75;;;5.25;;
11447;SDS011;43755;49.736;8.734;2023-09-08T03:57:42;5.93;;;5.38;;
11447;SDS011;43755;49.736;8.734;2023-09-08T03:59:43;6.07;;;5.35;;
11447;SDS011;43755;49.736;8.734;2023-09-08T04:01:44;5.93;;;5.33;;
11447;SDS011;43755;49.736;8.734;2023-09-08T04:03:45;8.77;;;5.80;;
11447;SDS011;43755;49.736;8.734;2023-09-08T04:05:46;5.72;;;5.22;;
11447;SDS011;43755;49.736;8.734;2023-09-08T04:07:49;7.60;;;6.13;;
11447;SDS011;43755;49.736;8.734;2023-09-08T04:09:50;5.95;;;5.35;;
11447;SDS011;43755;49.736;8.734;2023-09-08T04:11:52;5.50;;;5.05;;
11447;SDS011;43755;49.736;8.734;2023-09-08T04:13:55;5.70;;;5.30;;
11447;SDS011;43755;49.736;8.734;2023-09-08T04:15:56;5.65;;;5.25;;
11447;SDS011;43755;49.736;8.734;2023-09-08T04:17:57;5.40;;;4.90;;
11447;SDS011;43755;49.736;8.734;2023-09-08T04:19:59;6.55;;;5.18;;
11447;SDS011;43755;49.736;8.734;2023-09-08T04:22:00;6.20;;;5.60;;
11447;SDS011;43755;49.736;8.734;2023-09-08T04:24:03;6.18;;;5.55;;
11447;SDS011;43755;49.736;8.734;2023-09-08T04:26:06;6.38;;;5.78;;
11447;SDS011;43755;49.736;8.734;2023-09-08T04:28:08;6.40;;;5.43;;
11447;SDS011;43755;49.736;8.734;2023-09-08T04:30:09;5.65;;;5.05;;
11447;SDS011;43755;49.736;8.734;2023-09-08T04:32:11;5.75;;;5.28;;
11447;SDS011;43755;49.736;8.734;2023-09-08T04:34:13;5.95;;;5.43;;
11447;SDS011;43755;49.736;8.734;2023-09-08T04:36:14;6.18;;;5.35;;
11447;SDS011;43755;49.736;8.734;2023-09-08T04:38:16;5.93;;;5.30;;
11447;SDS011;43755;49.736;8.734;2023-09-08T04:40:19;6.10;;;5.32;;
11447;SDS011;43755;49.736;8.734;2023-09-08T04:42:20;5.97;;;5.25;;
11447;SDS011;43755;49.736;8.734;2023-09-08T04:44:23;5.50;;;5.10;;
11447;SDS011;43755;49.736;8.734;2023-09-08T04:46:24;6.80;;;5.40;;
11447;SDS011;43755;49.736;8.734;2023-09-08T04:48:25;5.70;;;5.20;;
11447;SDS011;43755;49.736;8.734;2023-09-08T04:50:28;6.07;;;5.60;;
11447;SDS011;43755;49.736;8.734;2023-09-08T04:52:29;5.80;;;5.30;;
11447;SDS011;43755;49.736;8.734;2023-09-08T04:54:31;5.43;;;4.90;;
11447;SDS011;43755;49.736;8.734;2023-09-08T04:56:33;5.83;;;5.37;;
11447;SDS011;43755;49.736;8.734;2023-09-08T04:58:34;5.80;;;5.30;;
11447;SDS011;43755;49.736;8.734;2023-09-08T05:00:37;5.68;;;5.28;;
11447;SDS011;43755;49.736;8.734;2023-09-08T05:02:39;6.07;;;5.50;;
11447;SDS011;43755;49.736;8.734;2023-09-08T05:04:40;5.10;;;4.70;;
11447;SDS011;43755;49.736;8.734;2023-09-08T05:06:41;9.47;;;5.33;;
11447;SDS011;43755;49.736;8.734;2023-09-08T05:08:42;5.88;;;5.28;;
11447;SDS011;43755;49.736;8.734;2023-09-08T05:10:44;5.32;;;4.80;;
11447;SDS011;43755;49.736;8.734;2023-09-08T05:12:47;5.47;;;5.00;;
11447;SDS011;43755;49.736;8.734;2023-09-08T05:14:47;5.82;;;5.10;;
11447;SDS011;43755;49.736;8.734;2023-09-08T05:16:49;5.50;;;5.00;;
11447;SDS011;43755;49.736;8.734;2023-09-08T05:18:55;7.40;;;5.80;;
11447;SDS011;43755;49.736;8.734;2023-09-08T05:20:56;5.30;;;4.90;;
11447;SDS011;43755;49.736;8.734;2023-09-08T05:22:58;5.70;;;5.25;;
11447;SDS011;43755;49.736;8.734;2023-09-08T05:24:59;5.65;;;5.15;;
11447;SDS011;43755;49.736;8.734;2023-09-08T05:27:01;7.85;;;5.70;;
11447;SDS011;43755;49.736;8.734;2023-09-08T05:29:03;6.45;;;5.53;;
11447;SDS011;43755;49.736;8.734;2023-09-08T05:31:05;6.35;;;5.70;;
11447;SDS011;43755;49.736;8.734;2023-09-08T05:33:06;5.47;;;4.97;;
11447;SDS011;43755;49.736;8.734;2023-09-08T05:35:07;6.60;;;5.90;;
11447;SDS011;43755;49.736;8.734;2023-09-08T05:37:09;6.90;;;5.40;;
11447;SDS011;43755;49.736;8.734;2023-09-08T05:39:10;7.78;;;5.40;;
11447;SDS011;43755;49.736;8.734;2023-09-08T05:41:13;6.10;;;5.60;;
11447;SDS011;43755;49.736;8.734;2023-09-08T05:43:14;5.93;;;5.33;;
11447;SDS011;43755;49.736;8.734;2023-09-08T05:45:16;5.93;;;5.43;;
11447;SDS011;43755;49.736;8.734;2023-09-08T05:47:18;7.13;;;5.60;;
11447;SDS011;43755;49.736;8.734;2023-09-08T05:49:19;8.55;;;5.60;;
11447;SDS011;43755;49.736;8.734;2023-09-08T05:51:21;6.63;;;5.55;;
11447;SDS011;43755;49.736;8.734;2023-09-08T05:53:23;7.43;;;5.50;;
11447;SDS011;43755;49.736;8.734;2023-09-08T05:55:24;5.90;;;5.32;;
11447;SDS011;43755;49.736;8.734;2023-09-08T05:57:25;6.05;;;5.45;;
11447;SDS011;43755;49.736;8.734;2023-09-08T05:59:27;5.63;;;5.10;;
11447;SDS011;43755;49.736;8.734;2023-09-08T06:01:29;5.53;;;5.07;;
11447;SDS011;43755;49.736;8.734;2023-09-08T06:03:31;5.05;;;4.65;;
11447;SDS011;43755;49.736;8.734;2023-09-08T06:05:32;6.78;;;5.28;;
11447;SDS011;43755;49.736;8.734;2023-09-08T06:07:33;7.17;;;5.23;;
11447;SDS011;43755;49.736;8.734;2023-09-08T06:09:34;5.43;;;4.93;;
11447;SDS011;43755;49.736;8.734;2023-09-08T06:11:36;6.50;;;5.70;;
11447;SDS011;43755;49.736;8.734;2023-09-08T06:13:37;6.03;;;5.30;;
11447;SDS011;43755;49.736;8.734;2023-09-08T06:15:39;6.60;;;6.00;;
11447;SDS011;43755;49.736;8.734;2023-09-08T06:17:41;5.20;;;4.70;;
11447;SDS011;43755;49.736;8.734;2023-09-08T06:19:42;6.47;;;5.10;;
11447;SDS011;43755;49.736;8.734;2023-09-08T06:21:44;12.60;;;5.50;;
11447;SDS011;43755;49.736;8.734;2023-09-08T06:23:45;6.13;;;5.22;;
11447;SDS011;43755;49.736;8.734;2023-09-08T06:25:47;5.22;;;4.82;;
11447;SDS011;43755;49.736;8.734;2023-09-08T06:27:48;5.88;;;5.00;;
11447;SDS011;43755;49.736;8.734;2023-09-08T06:29:50;6.28;;;5.30;;
11447;SDS011;43755;49.736;8.734;2023-09-08T06:31:51;6.00;;;5.40;;
11447;SDS011;43755;49.736;8.734;2023-09-08T06:33:53;5.70;;;5.20;;
11447;SDS011;43755;49.736;8.734;2023-09-08T06:35:55;6.47;;;5.40;;
11447;SDS011;43755;49.736;8.734;2023-09-08T06:37:56;6.18;;;5.28;;
11447;SDS011;43755;49.736;8.734;2023-09-08T06:39:58;9.40;;;5.53;;
11447;SDS011;43755;49.736;8.734;2023-09-08T06:41:59;6.25;;;5.65;;
11447;SDS011;43755;49.736;8.734;2023-09-08T06:44:01;6.80;;;5.07;;
11447;SDS011;43755;49.736;8.734;2023-09-08T06:46:02;5.70;;;5.00;;
11447;SDS011;43755;49.736;8.734;2023-09-08T06:48:04;10.63;;;5.78;;
11447;SDS011;43755;49.736;8.734;2023-09-08T06:50:07;5.57;;;5.03;;
11447;SDS011;43755;49.736;8.734;2023-09-08T06:52:09;9.52;;;5.78;;
11447;SDS011;43755;49.736;8.734;2023-09-08T06:54:11;8.35;;;5.82;;
11447;SDS011;43755;49.736;8.734;2023-09-08T06:56:12;6.38;;;5.75;;
11447;SDS011;43755;49.736;8.734;2023-09-08T06:58:14;8.13;;;5.88;;
11447;SDS011;43755;49.736;8.734;2023-09-08T07:00:15;6.82;;;6.10;;
11447;SDS011;43755;49.736;8.734;2023-09-08T07:02:17;12.15;;;5.82;;
11447;SDS011;43755;49.736;8.734;2023-09-08T07:04:18;8.77;;;5.63;;
11447;SDS011;43755;49.736;8.734;2023-09-08T07:06:21;5.30;;;4.90;;
11447;SDS011;43755;49.736;8.734;2023-09-08T07:08:23;9.75;;;5.07;;
11447;SDS011;43755;49.736;8.734;2023-09-08T07:10:24;12.80;;;4.93;;
11447;SDS011;43755;49.736;8.734;2023-09-08T07:12:25;5.70;;;4.68;;
11447;SDS011;43755;49.736;8.734;2023-09-08T07:14:27;7.55;;;5.60;;
11447;SDS011;43755;49.736;8.734;2023-09-08T07:16:28;5.78;;;4.80;;
11447;SDS011;43755;49.736;8.734;2023-09-08T07:18:30;6.95;;;5.00;;
11447;SDS011;43755;49.736;8.734;2023-09-08T07:20:34;5.20;;;4.70;;
11447;SDS011;43755;49.736;8.734;2023-09-08T07:22:37;6.07;;;4.90;;
11447;SDS011;43755;49.736;8.734;2023-09-08T07:24:39;7.13;;;5.40;;
11447;SDS011;43755;49.736;8.734;2023-09-08T07:26:40;6.30;;;4.90;;
11447;SDS011;43755;49.736;8.734;2023-09-08T07:28:40;5.20;;;4.70;;
11447;SDS011;43755;49.736;8.734;2023-09-08T07:30:42;5.73;;;4.47;;
11447;SDS011;43755;49.736;8.734;2023-09-08T07:32:44;4.87;;;4.50;;
11447;SDS011;43755;49.736;8.734;2023-09-08T07:34:45;6.47;;;4.90;;
11447;SDS011;43755;49.736;8.734;2023-09-08T07:36:47;4.80;;;4.40;;
11447;SDS011;43755;49.736;8.734;2023-09-08T07:38:50;5.25;;;4.78;;
11447;SDS011;43755;49.736;8.734;2023-09-08T07:40:52;14.57;;;5.13;;
11447;SDS011;43755;49.736;8.734;2023-09-08T07:42:53;6.73;;;4.40;;
11447;SDS011;43755;49.736;8.734;2023-09-08T07:44:54;4.70;;;4.37;;
11447;SDS011;43755;49.736;8.734;2023-09-08T07:46:56;4.33;;;4.03;;
11447;SDS011;43755;49.736;8.734;2023-09-08T07:48:57;5.57;;;4.67;;
11447;SDS011;43755;49.736;8.734;2023-09-08T07:50:59;6.23;;;4.77;;
11447;SDS011;43755;49.736;8.734;2023-09-08T07:53:00;8.03;;;4.70;;
11447;SDS011;43755;49.736;8.734;2023-09-08T07:55:03;5.90;;;4.50;;
11447;SDS011;43755;49.736;8.734;2023-09-08T07:57:05;4.63;;;4.20;;
11447;SDS011;43755;49.736;8.734;2023-09-08T07:59:06;4.90;;;4.50;;
11447;SDS011;43755;49.736;8.734;2023-09-08T08:01:08;5.10;;;4.60;;
11447;SDS011;43755;49.736;8.734;2023-09-08T08:03:09;5.10;;;4.53;;
11447;SDS011;43755;49.736;8.734;2023-09-08T08:05:11;4.90;;;4.57;;
11447;SDS011;43755;49.736;8.734;2023-09-08T08:07:11;4.30;;;4.00;;
11447;SDS011;43755;49.736;8.734;2023-09-08T08:09:13;4.80;;;4.40;;
11447;SDS011;43755;49.736;8.734;2023-09-08T08:11:19;5.27;;;4.30;;
11447;SDS011;43755;49.736;8.734;2023-09-08T08:13:23;4.50;;;4.10;;
11447;SDS011;43755;49.736;8.734;2023-09-08T08:15:34;4.67;;;4.30;;
11447;SDS011;43755;49.736;8.734;2023-09-08T08:17:36;5.30;;;4.87;;
11447;SDS011;43755;49.736;8.734;2023-09-08T08:19:38;5.07;;;4.13;;
11447;SDS011;43755;49.736;8.734;2023-09-08T08:21:39;5.27;;;4.77;;
11447;SDS011;43755;49.736;8.734;2023-09-08T08:23:42;5.80;;;4.33;;
11447;SDS011;43755;49.736;8.734;2023-09-08T08:25:43;4.37;;;3.97;;
11447;SDS011;43755;49.736;8.734;2023-09-08T08:27:45;6.93;;;4.60;;
11447;SDS011;43755;49.736;8.734;2023-09-08T08:29:46;4.70;;;4.30;;
11447;SDS011;43755;49.736;8.734;2023-09-08T08:31:47;5.60;;;4.30;;
11447;SDS011;43755;49.736;8.734;2023-09-08T08:33:48;5.27;;;4.20;;
11447;SDS011;43755;49.736;8.734;2023-09-08T08:35:49;7.03;;;4.73;;
11447;SDS011;43755;49.736;8.734;2023-09-08T08:37:50;5.97;;;4.73;;
11447;SDS011;43755;49.736;8.734;2023-09-08T08:39:52;5.10;;;4.50;;
11447;SDS011;43755;49.736;8.734;2023-09-08T08:41:54;5.33;;;4.47;;
11447;SDS011;43755;49.736;8.734;2023-09-08T08:43:57;5.83;;;4.73;;
11447;SDS011;43755;49.736;8.734;2023-09-08T08:46:00;7.00;;;4.70;;
11447;SDS011;43755;49.736;8.734;2023-09-08T08:48:03;4.93;;;4.37;;
11447;SDS011;43755;49.736;8.734;2023-09-08T08:50:05;4.67;;;4.37;;
11447;SDS011;43755;49.736;8.734;2023-09-08T08:52:11;5.13;;;4.50;;
11447;SDS011;43755;49.736;8.734;2023-09-08T08:54:12;4.57;;;4.07;;
11447;SDS011;43755;49.736;8.734;2023-09-08T08:56:14;5.50;;;4.30;;
11447;SDS011;43755;49.736;8.734;2023-09-08T08:58:17;5.87;;;4.50;;
11447;SDS011;43755;49.736;8.734;2023-09-08T09:00:22;6.37;;;4.37;;
11447;SDS011;43755;49.736;8.734;2023-09-08T09:02:24;4.60;;;4.20;;
11447;SDS011;43755;49.736;8.734;2023-09-08T09:04:27;4.67;;;4.27;;
11447;SDS011;43755;49.736;8.734;2023-09-08T09:06:28;5.00;;;4.60;;
11447;SDS011;43755;49.736;8.734;2023-09-08T09:08:30;4.83;;;4.30;;
11447;SDS011;43755;49.736;8.734;2023-09-08T09:10:32;4.47;;;4.07;;
11447;SDS011;43755;49.736;8.734;2023-09-08T09:12:33;5.63;;;4.43;;
11447;SDS011;43755;49.736;8.734;2023-09-08T09:14:37;4.30;;;4.00;;
11447;SDS011;43755;49.736;8.734;2023-09-08T09:16:40;4.40;;;4.10;;
11447;SDS011;43755;49.736;8.734;2023-09-08T09:18:55;5.90;;;4.20;;
11447;SDS011;43755;49.736;8.734;2023-09-08T09:20:58;4.27;;;3.97;;
11447;SDS011;43755;49.736;8.734;2023-09-08T09:23:00;4.17;;;3.70;;
11447;SDS011;43755;49.736;8.734;2023-09-08T09:25:01;4.30;;;4.00;;
11447;SDS011;43755;49.736;8.734;2023-09-08T09:27:07;7.63;;;4.50;;
11447;SDS011;43755;49.736;8.734;2023-09-08T09:29:11;5.47;;;4.20;;
11447;SDS011;43755;49.736;8.734;2023-09-08T09:31:14;5.70;;;4.17;;
11447;SDS011;43755;49.736;8.734;2023-09-08T09:33:16;6.07;;;4.20;;
11447;SDS011;43755;49.736;8.734;2023-09-08T09:35:18;7.00;;;4.60;;
11447;SDS011;43755;49.736;8.734;2023-09-08T09:37:20;5.87;;;4.17;;
11447;SDS011;43755;49.736;8.734;2023-09-08T09:39:22;10.33;;;4.57;;
11447;SDS011;43755;49.736;8.734;2023-09-08T09:41:25;9.33;;;4.50;;
11447;SDS011;43755;49.736;8.734;2023-09-08T09:43:27;9.63;;;4.40;;
11447;SDS011;43755;49.736;8.734;2023-09-08T09:45:30;8.30;;;4.80;;
11447;SDS011;43755;49.736;8.734;2023-09-08T09:47:31;4.50;;;4.10;;
11447;SDS011;43755;49.736;8.734;2023-09-08T09:49:35;7.80;;;4.70;;
11447;SDS011;43755;49.736;8.734;2023-09-08T09:51:43;5.63;;;4.40;;
11447;SDS011;43755;49.736;8.734;2023-09-08T09:53:45;6.07;;;4.07;;
11447;SDS011;43755;49.736;8.734;2023-09-08T09:55:48;4.50;;;4.10;;
11447;SDS011;43755;49.736;8.734;2023-09-08T09:57:49;7.17;;;4.20;;
11447;SDS011;43755;49.736;8.734;2023-09-08T09:59:52;5.80;;;4.17;;
11447;SDS011;43755;49.736;8.734;2023-09-08T10:01:56;4.70;;;4.30;;
11447;SDS011;43755;49.736;8.734;2023-09-08T10:03:57;5.63;;;4.47;;
11447;SDS011;43755;49.736;8.734;2023-09-08T10:06:00;5.23;;;4.40;;
11447;SDS011;43755;49.736;8.734;2023-09-08T10:08:04;5.47;;;4.33;;
11447;SDS011;43755;49.736;8.734;2023-09-08T10:10:06;4.37;;;3.80;;
11447;SDS011;43755;49.736;8.734;2023-09-08T10:12:09;6.97;;;4.33;;
11447;SDS011;43755;49.736;8.734;2023-09-08T10:14:16;4.27;;;3.93;;
11447;SDS011;43755;49.736;8.734;2023-09-08T10:16:19;4.20;;;3.90;;
11447;SDS011;43755;49.736;8.734;2023-09-08T10:18:22;5.17;;;4.40;;
11447;SDS011;43755;49.736;8.734;2023-09-08T10:20:24;4.17;;;3.87;;
11447;SDS011;43755;49.736;8.734;2023-09-08T10:22:28;4.00;;;3.63;;
11447;SDS011;43755;49.736;8.734;2023-09-08T10:24:32;4.00;;;3.70;;
11447;SDS011;43755;49.736;8.734;2023-09-08T10:26:35;4.17;;;3.77;;
11447;SDS011;43755;49.736;8.734;2023-09-08T10:28:41;4.03;;;3.73;;
11447;SDS011;43755;49.736;8.734;2023-09-08T10:30:42;4.00;;;3.60;;
11447;SDS011;43755;49.736;8.734;2023-09-08T10:32:43;4.23;;;3.83;;
11447;SDS011;43755;49.736;8.734;2023-09-08T10:34:45;4.40;;;3.93;;
11447;SDS011;43755;49.736;8.734;2023-09-08T10:36:48;3.97;;;3.53;;
11447;SDS011;43755;49.736;8.734;2023-09-08T10:38:51;4.23;;;3.83;;
11447;SDS011;43755;49.736;8.734;2023-09-08T10:43:28;5.03;;;3.77;;
11447;SDS011;43755;49.736;8.734;2023-09-08T10:45:29;4.30;;;3.90;;
11447;SDS011;43755;49.736;8.734;2023-09-08T10:47:32;6.57;;;4.17;;
11447;SDS011;43755;49.736;8.734;2023-09-08T10:49:39;5.10;;;3.70;;
11447;SDS011;43755;49.736;8.734;2023-09-08T10:51:41;3.80;;;3.40;;
11447;SDS011;43755;49.736;8.734;2023-09-08T10:53:46;3.83;;;3.53;;
11447;SDS011;43755;49.736;8.734;2023-09-08T10:55:49;3.60;;;3.30;;
11447;SDS011;43755;49.736;8.734;2023-09-08T10:57:54;4.00;;;3.70;;
11447;SDS011;43755;49.736;8.734;2023-09-08T10:59:55;3.77;;;3.57;;
11447;SDS011;43755;49.736;8.734;2023-09-08T11:01:57;5.33;;;3.77;;
11447;SDS011;43755;49.736;8.734;2023-09-08T11:03:59;3.70;;;3.40;;
11447;SDS011;43755;49.736;8.734;2023-09-08T11:06:09;4.00;;;3.70;;
11447;SDS011;43755;49.736;8.734;2023-09-08T11:08:10;3.93;;;3.63;;
11447;SDS011;43755;49.736;8.734;2023-09-08T11:10:14;3.50;;;3.30;;
11447;SDS011;43755;49.736;8.734;2023-09-08T11:12:17;4.57;;;3.53;;
11447;SDS011;43755;49.736;8.734;2023-09-08T11:14:18;3.97;;;3.67;;
11447;SDS011;43755;49.736;8.734;2023-09-08T11:16:19;4.13;;;3.80;;
11447;SDS011;43755;49.736;8.734;2023-09-08T11:18:29;4.43;;;3.40;;
11447;SDS011;43755;49.736;8.734;2023-09-08T11:20:31;3.73;;;3.43;;
11447;SDS011;43755;49.736;8.734;2023-09-08T11:22:33;4.10;;;3.80;;
11447;SDS011;43755;49.736;8.734;2023-09-08T11:24:35;3.93;;;3.60;;
11447;SDS011;43755;49.736;8.734;2023-09-08T11:26:37;6.30;;;3.47;;
11447;SDS011;43755;49.736;8.734;2023-09-08T11:28:40;3.80;;;3.50;;
11447;SDS011;43755;49.736;8.734;2023-09-08T11:30:42;3.57;;;3.37;;
11447;SDS011;43755;49.736;8.734;2023-09-08T11:32:43;3.20;;;3.00;;
11447;SDS011;43755;49.736;8.734;2023-09-08T11:34:44;3.53;;;3.33;;
11447;SDS011;43755;49.736;8.734;2023-09-08T11:36:45;3.80;;;3.50;;
11447;SDS011;43755;49.736;8.734;2023-09-08T11:38:47;3.80;;;3.50;;
11447;SDS011;43755;49.736;8.734;2023-09-08T11:40:49;3.90;;;3.30;;
11447;SDS011;43755;49.736;8.734;2023-09-08T11:42:50;3.90;;;3.60;;
11447;SDS011;43755;49.736;8.734;2023-09-08T11:44:56;3.83;;;3.53;;
11447;SDS011;43755;49.736;8.734;2023-09-08T11:46:57;3.97;;;3.50;;
11447;SDS011;43755;49.736;8.734;2023-09-08T11:48:59;3.93;;;3.70;;
11447;SDS011;43755;49.736;8.734;2023-09-08T11:51:01;4.73;;;3.87;;
11447;SDS011;43755;49.736;8.734;2023-09-08T11:53:02;3.43;;;3.23;;
11447;SDS011;43755;49.736;8.734;2023-09-08T11:55:04;3.50;;;3.20;;
11447;SDS011;43755;49.736;8.734;2023-09-08T11:57:06;3.60;;;3.40;;
11447;SDS011;43755;49.736;8.734;2023-09-08T11:59:08;4.03;;;3.47;;
11447;SDS011;43755;49.736;8.734;2023-09-08T12:01:10;3.60;;;3.30;;
11447;SDS011;43755;49.736;8.734;2023-09-08T12:03:12;3.63;;;3.37;;
11447;SDS011;43755;49.736;8.734;2023-09-08T12:05:20;3.27;;;2.97;;
11447;SDS011;43755;49.736;8.734;2023-09-08T12:07:22;3.70;;;3.40;;
11447;SDS011;43755;49.736;8.734;2023-09-08T12:09:23;3.57;;;3.37;;
11447;SDS011;43755;49.736;8.734;2023-09-08T12:11:31;3.63;;;3.43;;
11447;SDS011;43755;49.736;8.734;2023-09-08T12:13:34;3.63;;;3.20;;
11447;SDS011;43755;49.736;8.734;2023-09-08T12:15:36;3.63;;;3.33;;
11447;SDS011;43755;49.736;8.734;2023-09-08T12:17:49;3.30;;;3.10;;
11447;SDS011;43755;49.736;8.734;2023-09-08T12:19:51;3.70;;;3.40;;